Time;durP1;ratioP1;P1;durP2;ratioP2;P2;SDS_P1;SDS_P2;PMS_P1;PMS_P2;Temp;Humidity;BMP_temperature;BMP_pressure;BME280_temperature;BME280_humidity;BME280_pressure;Samples;Min_cycle;Max_cycle;Signal;HPM_P1;HPM_P2
2023/03/27 00:00:59;;;;;;;66.15;48.20;;;13.80;76.30;;;;;;4970066;28;91140;-78
2023/03/27 00:03:27;;;;;;;67.57;48.42;;;13.90;76.20;;;;;;4967817;28;89952;-78
2023/03/27 00:06:08;;;;;;;66.88;48.50;;;13.80;75.70;;;;;;4974750;28;89522;-78
2023/03/27 00:08:35;;;;;;;68.28;48.25;;;13.80;76.00;;;;;;4974409;28;90813;-77
2023/03/27 00:11:01;;;;;;;67.25;48.50;;;13.70;76.70;;;;;;4974827;28;89659;-76
2023/03/27 00:13:28;;;;;;;67.60;48.15;;;13.80;76.30;;;;;;4974724;28;90528;-77
2023/03/27 00:15:54;;;;;;;67.72;48.45;;;13.80;76.30;;;;;;4978259;28;89438;-76
2023/03/27 00:18:21;;;;;;;67.50;47.95;;;13.70;76.30;;;;;;4974155;28;89018;-77
2023/03/27 00:20:47;;;;;;;67.10;48.22;;;13.70;76.00;;;;;;4972213;28;90320;-77
2023/03/27 00:23:12;;;;;;;66.63;48.20;;;13.70;76.20;;;;;;4968812;28;89346;-78
2023/03/27 00:25:39;;;;;;;66.13;48.10;;;13.70;76.50;;;;;;4969045;28;95029;-76
2023/03/27 00:28:07;;;;;;;66.68;48.05;;;13.80;76.60;;;;;;4967496;28;89949;-78
2023/03/27 00:30:34;;;;;;;65.65;48.08;;;13.80;76.30;;;;;;4972122;28;88616;-76
2023/03/27 00:33:00;;;;;;;66.43;48.25;;;13.80;76.50;;;;;;4971055;28;91866;-78
2023/03/27 00:35:28;;;;;;;65.15;48.03;;;13.80;76.20;;;;;;4973647;28;90339;-78
2023/03/27 00:37:54;;;;;;;67.57;48.28;;;13.70;76.50;;;;;;4973809;28;90642;-77
2023/03/27 00:40:20;;;;;;;66.60;48.20;;;13.70;76.50;;;;;;4964457;28;89850;-78
2023/03/27 00:42:48;;;;;;;67.05;48.33;;;13.80;76.50;;;;;;4969741;28;90609;-77
2023/03/27 00:45:22;;;;;;;65.75;48.17;;;13.70;76.50;;;;;;4982729;28;90309;-78
2023/03/27 00:47:53;;;;;;;65.82;47.97;;;13.80;76.50;;;;;;4967490;28;90167;-76
2023/03/27 00:50:24;;;;;;;65.25;48.05;;;13.70;76.40;;;;;;4964950;28;89403;-78
2023/03/27 00:52:55;;;;;;;65.50;48.05;;;13.70;76.60;;;;;;4978083;28;89659;-78
2023/03/27 00:55:21;;;;;;;65.40;48.00;;;13.70;76.50;;;;;;4967792;28;89923;-78
2023/03/27 00:57:53;;;;;;;65.75;47.92;;;13.70;76.20;;;;;;4976479;28;90087;-77
2023/03/27 01:00:19;;;;;;;66.80;48.10;;;13.70;76.00;;;;;;4974637;28;89765;-77
2023/03/27 01:02:49;;;;;;;67.68;47.92;;;13.70;76.40;;;;;;4969501;28;92358;-76
2023/03/27 01:05:17;;;;;;;67.07;48.03;;;13.60;76.30;;;;;;4968842;28;90082;-78
2023/03/27 01:07:43;;;;;;;65.72;48.13;;;13.70;76.50;;;;;;4976071;28;92255;-78
2023/03/27 01:10:10;;;;;;;66.60;48.42;;;13.70;76.20;;;;;;4975866;28;89505;-77
2023/03/27 01:13:03;;;;;;;65.00;47.85;;;13.60;76.50;;;;;;4973896;28;90757;-77
2023/03/27 01:15:41;;;;;;;65.18;47.97;;;13.60;76.40;;;;;;4972870;28;89239;-78
2023/03/27 01:18:29;;;;;;;65.30;47.97;;;13.60;76.40;;;;;;4976456;28;93081;-78
2023/03/27 01:21:33;;;;;;;65.10;48.00;;;13.60;76.40;;;;;;4966408;28;88840;-77
2023/03/27 01:24:42;;;;;;;67.28;47.80;;;13.60;76.40;;;;;;4972805;28;89817;-76
2023/03/27 01:27:45;;;;;;;64.85;47.97;;;13.60;76.30;;;;;;4976474;28;89635;-76
2023/03/27 01:30:23;;;;;;;65.03;47.80;;;13.60;76.20;;;;;;4972955;28;90862;-75
2023/03/27 01:33:20;;;;;;;64.70;47.70;;;13.70;76.60;;;;;;4972567;28;90217;-75
2023/03/27 01:36:10;;;;;;;65.22;48.05;;;13.60;76.10;;;;;;4971591;28;91430;-75
2023/03/27 01:39:10;;;;;;;65.95;47.40;;;13.60;76.20;;;;;;4976450;28;92448;-75
2023/03/27 01:42:07;;;;;;;66.55;48.00;;;13.60;76.10;;;;;;4972784;28;90362;-75
2023/03/27 01:45:10;;;;;;;65.10;47.83;;;13.60;76.70;;;;;;4970663;28;90584;-75
2023/03/27 01:48:02;;;;;;;64.70;47.55;;;13.60;76.30;;;;;;4955444;28;92207;-75
2023/03/27 01:50:31;;;;;;;66.25;47.60;;;13.50;76.30;;;;;;4976423;28;89113;-76
2023/03/27 01:53:21;;;;;;;65.35;47.63;;;13.60;76.30;;;;;;4996012;28;90629;-76
2023/03/27 01:55:57;;;;;;;65.28;47.95;;;13.60;76.20;;;;;;4946445;28;90605;-74
2023/03/27 01:58:28;;;;;;;65.68;47.72;;;13.60;76.30;;;;;;4970174;28;91301;-74
2023/03/27 02:00:56;;;;;;;;;;;13.60;76.30;;;;;;4969956;28;89602;-75
2023/03/27 02:03:28;;;;;;;65.10;47.85;;;13.60;76.00;;;;;;4974418;28;89788;-76
2023/03/27 02:06:06;;;;;;;64.80;47.67;;;13.50;75.90;;;;;;4972277;28;89772;-75
2023/03/27 02:09:07;;;;;;;66.32;47.95;;;13.50;75.70;;;;;;4972193;28;89947;-76
2023/03/27 02:11:37;;;;;;;65.18;47.53;;;13.50;75.60;;;;;;4974181;28;90076;-76
2023/03/27 02:14:18;;;;;;;65.20;48.05;;;13.50;75.60;;;;;;4974182;28;90155;-74
2023/03/27 02:16:50;;;;;;;65.60;48.17;;;13.40;75.10;;;;;;4973979;28;91458;-74
2023/03/27 02:19:22;;;;;;;65.18;47.83;;;13.40;76.00;;;;;;4977542;28;90260;-76
2023/03/27 02:21:48;;;;;;;66.10;48.00;;;13.50;76.40;;;;;;4975117;28;89569;-74
2023/03/27 02:24:17;;;;;;;66.95;48.22;;;13.50;75.70;;;;;;4967166;28;90613;-74
2023/03/27 02:26:43;;;;;;;63.55;47.65;;;13.40;75.60;;;;;;4961304;28;90489;-76
2023/03/27 02:29:21;;;;;;;66.53;48.22;;;13.50;76.00;;;;;;4970376;28;89881;-76
2023/03/27 02:32:22;;;;;;;65.25;48.20;;;13.40;76.10;;;;;;4956552;28;89318;-77
2023/03/27 02:34:55;;;;;;;65.80;47.63;;;13.40;76.10;;;;;;4975029;28;89457;-76
2023/03/27 02:37:27;;;;;;;64.97;47.65;;;13.50;76.20;;;;;;4969867;28;89458;-77
2023/03/27 02:40:21;;;;;;;65.00;48.13;;;13.40;75.90;;;;;;4976597;28;89172;-77
2023/03/27 02:42:59;;;;;;;64.25;47.88;;;13.40;75.80;;;;;;4976246;28;89178;-79
2023/03/27 02:45:51;;;;;;;64.88;47.70;;;13.40;76.10;;;;;;4978618;28;90126;-76
2023/03/27 02:48:32;;;;;;;66.28;47.83;;;13.30;76.00;;;;;;4975800;28;90393;-76
2023/03/27 02:51:10;;;;;;;63.72;47.58;;;13.40;76.20;;;;;;4974143;28;90321;-75
2023/03/27 02:53:47;;;;;;;65.40;47.70;;;13.30;76.10;;;;;;4971853;28;89169;-76
2023/03/27 02:56:15;;;;;;;64.95;47.45;;;13.30;75.90;;;;;;4978121;28;90599;-77
2023/03/27 02:59:04;;;;;;;65.15;48.00;;;13.40;76.20;;;;;;4974428;28;91727;-75
2023/03/27 03:01:31;;;;;;;65.63;47.60;;;13.30;76.30;;;;;;4979248;28;89902;-76
2023/03/27 03:04:12;;;;;;;64.13;47.63;;;13.30;76.20;;;;;;4982065;28;90074;-77
2023/03/27 03:06:41;;;;;;;64.47;47.77;;;13.30;76.30;;;;;;4993808;28;89896;-74
2023/03/27 03:09:06;;;;;;;64.57;47.63;;;13.30;76.40;;;;;;4974109;28;90363;-78
2023/03/27 03:11:34;;;;;;;64.10;47.33;;;13.30;76.80;;;;;;4968057;28;89260;-76
2023/03/27 03:14:00;;;;;;;65.05;47.95;;;13.30;76.20;;;;;;4975556;28;89056;-77
2023/03/27 03:16:27;;;;;;;65.00;47.92;;;13.30;76.20;;;;;;4975535;28;94511;-74
2023/03/27 03:18:53;;;;;;;65.75;47.88;;;13.30;76.20;;;;;;4972797;28;90448;-77
2023/03/27 03:21:19;;;;;;;65.72;48.33;;;13.20;76.20;;;;;;4975135;28;89230;-77
2023/03/27 03:23:45;;;;;;;67.03;48.08;;;13.30;76.20;;;;;;4971909;28;90840;-75
2023/03/27 03:26:12;;;;;;;64.32;47.65;;;13.20;76.10;;;;;;4974629;28;89263;-77
2023/03/27 03:28:38;;;;;;;66.55;48.00;;;13.30;76.10;;;;;;4977259;28;90874;-76
2023/03/27 03:31:04;;;;;;;64.32;47.72;;;13.30;76.00;;;;;;4975780;28;89784;-76
2023/03/27 03:33:30;;;;;;;64.82;47.95;;;13.30;76.20;;;;;;4977852;28;88806;-77
2023/03/27 03:36:00;;;;;;;65.78;48.17;;;13.30;76.10;;;;;;4979977;28;92151;-76
2023/03/27 03:38:28;;;;;;;65.38;47.95;;;13.20;75.90;;;;;;4977278;28;90263;-77
2023/03/27 03:40:55;;;;;;;64.93;47.83;;;13.20;76.20;;;;;;4978723;28;90155;-76
2023/03/27 03:43:21;;;;;;;64.15;47.65;;;13.20;76.10;;;;;;4970832;28;89155;-77
2023/03/27 03:45:47;;;;;;;64.03;47.58;;;13.20;75.90;;;;;;4973447;28;90511;-76
2023/03/27 03:48:13;;;;;;;66.38;47.78;;;13.20;76.40;;;;;;4973408;28;90538;-77
2023/03/27 03:50:39;;;;;;;64.72;47.80;;;13.20;76.00;;;;;;4979409;28;89573;-77
2023/03/27 03:53:05;;;;;;;66.22;47.72;;;13.20;76.30;;;;;;4966778;28;89620;-75
2023/03/27 03:55:30;;;;;;;66.15;47.70;;;13.20;76.40;;;;;;4968798;28;90318;-77
2023/03/27 03:57:56;;;;;;;64.28;47.58;;;13.20;76.40;;;;;;4976843;28;89378;-76
2023/03/27 04:00:23;;;;;;;65.65;47.90;;;13.20;76.20;;;;;;4981960;28;89134;-75
2023/03/27 04:02:53;;;;;;;65.43;47.33;;;13.10;76.30;;;;;;4960723;28;89799;-77
2023/03/27 04:05:20;;;;;;;63.92;47.42;;;13.10;75.70;;;;;;4961357;28;95421;-75
2023/03/27 04:07:46;;;;;;;63.72;47.67;;;13.10;76.30;;;;;;4961212;28;90387;-77
2023/03/27 04:10:14;;;;;;;65.38;47.88;;;13.10;76.20;;;;;;4973793;28;89482;-77
2023/03/27 04:12:44;;;;;;;65.78;47.88;;;13.00;76.40;;;;;;4973435;28;90856;-77
2023/03/27 04:15:10;;;;;;;65.03;47.85;;;13.10;76.50;;;;;;4968378;28;97785;-76
2023/03/27 04:17:37;;;;;;;63.92;47.53;;;13.10;76.20;;;;;;4966638;28;90797;-75
2023/03/27 04:20:05;;;;;;;64.43;47.60;;;13.10;76.40;;;;;;4973103;28;90253;-75
2023/03/27 04:22:36;;;;;;;64.22;47.65;;;13.00;75.80;;;;;;4976850;28;88605;-76
2023/03/27 04:25:03;;;;;;;;;;;13.00;76.60;;;;;;4980424;28;90074;-75
2023/03/27 04:27:29;;;;;;;63.80;47.47;;;13.00;76.20;;;;;;4976140;28;89489;-76
2023/03/27 04:29:55;;;;;;;63.47;47.28;;;13.00;76.10;;;;;;4975339;28;92080;-75
2023/03/27 04:32:20;;;;;;;64.93;47.53;;;13.00;76.00;;;;;;4967237;28;89745;-75
2023/03/27 04:34:49;;;;;;;63.13;47.55;;;13.00;76.30;;;;;;4982063;28;89790;-76
2023/03/27 04:37:15;;;;;;;63.65;47.63;;;13.00;76.50;;;;;;4978143;28;89831;-76
2023/03/27 04:39:45;;;;;;;64.30;47.55;;;13.00;76.10;;;;;;4974525;28;89493;-75
2023/03/27 04:42:11;;;;;;;63.75;47.63;;;13.00;76.00;;;;;;4974785;28;89619;-75
2023/03/27 04:44:37;;;;;;;65.00;47.67;;;13.00;76.50;;;;;;4977292;28;90308;-76
2023/03/27 04:47:06;;;;;;;63.70;47.58;;;13.00;76.30;;;;;;4972265;28;89976;-75
2023/03/27 04:49:41;;;;;;;64.28;47.63;;;13.00;75.90;;;;;;4988444;28;89025;-76
2023/03/27 04:52:07;;;;;;;64.65;47.70;;;12.90;76.90;;;;;;4983055;28;89476;-76
2023/03/27 04:54:33;;;;;;;64.07;47.13;;;12.90;76.40;;;;;;4978599;28;90799;-77
2023/03/27 04:57:02;;;;;;;63.65;47.45;;;12.90;76.00;;;;;;4977854;28;92169;-76
2023/03/27 04:59:31;;;;;;;64.50;48.03;;;12.90;76.30;;;;;;4981143;28;89298;-77
2023/03/27 05:02:00;;;;;;;63.33;47.42;;;12.90;76.10;;;;;;4973658;28;89226;-77
2023/03/27 05:04:27;;;;;;;63.30;47.67;;;12.90;76.40;;;;;;4985685;28;90075;-77
2023/03/27 05:06:54;;;;;;;63.60;47.53;;;13.00;76.00;;;;;;4974846;28;89487;-77
2023/03/27 05:09:20;;;;;;;63.28;47.45;;;12.90;76.30;;;;;;4988983;28;89324;-75
2023/03/27 05:11:48;;;;;;;63.25;47.45;;;12.90;76.30;;;;;;4966006;28;90270;-78
2023/03/27 05:14:22;;;;;;;63.72;47.58;;;12.90;76.00;;;;;;4985843;28;89174;-78
2023/03/27 05:16:49;;;;;;;63.97;47.70;;;12.90;76.20;;;;;;4986854;28;89135;-80
2023/03/27 05:19:15;;;;;;;65.22;47.42;;;12.90;76.20;;;;;;4980537;28;90032;-78
2023/03/27 05:21:41;;;;;;;64.15;48.00;;;12.90;76.00;;;;;;4986713;28;89204;-77
2023/03/27 05:24:08;;;;;;;63.47;47.55;;;12.90;76.10;;;;;;4988549;28;88993;-78
2023/03/27 05:26:34;;;;;;;64.00;47.35;;;12.90;76.20;;;;;;4982890;28;95508;-76
2023/03/27 05:29:00;;;;;;;63.88;47.47;;;12.90;75.70;;;;;;4984336;28;89109;-76
2023/03/27 05:31:27;;;;;;;63.80;47.65;;;13.00;75.30;;;;;;4985050;28;89221;-78
2023/03/27 05:33:53;;;;;;;63.45;47.40;;;13.00;75.30;;;;;;4987524;28;89555;-77
2023/03/27 05:36:19;;;;;;;63.72;47.58;;;13.00;75.30;;;;;;4982749;28;89877;-78
2023/03/27 05:38:45;;;;;;;65.57;48.17;;;12.90;75.10;;;;;;4981069;28;89107;-76
2023/03/27 05:41:10;;;;;;;64.50;47.10;;;13.00;75.20;;;;;;4976373;28;89311;-76
2023/03/27 05:43:37;;;;;;;70.18;47.60;;;13.00;74.90;;;;;;4976704;28;90401;-77
2023/03/27 05:46:03;;;;;;;66.55;47.92;;;13.00;75.70;;;;;;4975118;28;89753;-77
2023/03/27 05:48:28;;;;;;;68.10;47.97;;;13.10;74.40;;;;;;4986509;28;89141;-77
2023/03/27 05:50:54;;;;;;;69.88;48.03;;;13.10;74.40;;;;;;4983627;28;89052;-78
2023/03/27 05:53:20;;;;;;;70.28;47.88;;;13.20;74.50;;;;;;4982453;28;89164;-76
2023/03/27 05:55:46;;;;;;;65.03;48.00;;;13.20;74.10;;;;;;4983416;28;89597;-77
2023/03/27 05:58:12;;;;;;;65.43;47.92;;;13.20;74.00;;;;;;4987738;28;89636;-78
2023/03/27 06:00:41;;;;;;;64.93;47.80;;;13.20;74.00;;;;;;4978367;28;89251;-76
2023/03/27 06:03:09;;;;;;;68.90;48.35;;;13.10;74.00;;;;;;4976115;28;89563;-77
2023/03/27 06:05:36;;;;;;;66.03;47.75;;;13.10;74.00;;;;;;4982596;28;89642;-77
2023/03/27 06:08:02;;;;;;;68.30;47.80;;;13.20;74.10;;;;;;4983092;28;90580;-77
2023/03/27 06:10:29;;;;;;;65.55;47.72;;;13.20;74.00;;;;;;4983696;28;90058;-77
2023/03/27 06:13:02;;;;;;;65.47;47.80;;;13.20;73.50;;;;;;4980586;28;89321;-76
2023/03/27 06:15:28;;;;;;;70.57;48.45;;;13.20;73.90;;;;;;4982938;28;92296;-77
2023/03/27 06:17:54;;;;;;;67.25;47.85;;;13.20;73.60;;;;;;4983040;28;89108;-78
2023/03/27 06:20:21;;;;;;;65.75;48.15;;;13.20;73.80;;;;;;4984101;28;89140;-77
2023/03/27 06:22:52;;;;;;;68.68;47.63;;;13.20;73.40;;;;;;4983140;28;89092;-78
2023/03/27 06:25:19;;;;;;;71.32;48.17;;;13.30;73.70;;;;;;4983661;28;88890;-76
2023/03/27 06:27:49;;;;;;;66.75;48.00;;;13.30;73.40;;;;;;4983099;28;89311;-76
2023/03/27 06:30:17;;;;;;;67.68;48.20;;;13.20;73.40;;;;;;4976579;28;89759;-77
2023/03/27 06:32:49;;;;;;;65.65;48.00;;;13.30;73.20;;;;;;4972257;28;92188;-77
2023/03/27 06:35:16;;;;;;;72.90;48.30;;;13.30;73.50;;;;;;4980162;28;89638;-77
2023/03/27 06:37:45;;;;;;;68.70;47.97;;;13.30;73.30;;;;;;4978218;28;89247;-77
2023/03/27 06:40:21;;;;;;;68.85;47.90;;;13.20;73.30;;;;;;4977671;28;89845;-76
2023/03/27 06:42:59;;;;;;;70.00;48.40;;;13.20;73.20;;;;;;4981493;28;89379;-77
2023/03/27 06:45:30;;;;;;;67.57;48.13;;;13.20;73.10;;;;;;4981409;28;89214;-78
2023/03/27 06:47:58;;;;;;;64.25;47.65;;;13.10;73.20;;;;;;4976011;28;90371;-78
2023/03/27 06:50:26;;;;;;;68.88;48.28;;;13.10;72.40;;;;;;4982753;28;88356;-78
2023/03/27 06:52:52;;;;;;;68.68;48.05;;;13.10;73.10;;;;;;4980729;28;89143;-77
2023/03/27 06:55:20;;;;;;;63.97;47.70;;;13.00;73.90;;;;;;4977489;28;90554;-76
2023/03/27 06:57:51;;;;;;;66.90;47.85;;;13.10;73.80;;;;;;4976294;28;90696;-77
2023/03/27 07:00:22;;;;;;;65.35;48.05;;;13.10;73.80;;;;;;4976569;28;89273;-77
2023/03/27 07:02:53;;;;;;;65.88;47.88;;;13.10;73.70;;;;;;4973821;28;91940;-78
2023/03/27 07:05:19;;;;;;;65.88;47.65;;;13.20;73.10;;;;;;4973725;28;89047;-75
2023/03/27 07:07:46;;;;;;;67.47;47.72;;;13.20;73.20;;;;;;4978791;28;89235;-76
2023/03/27 07:10:12;;;;;;;66.85;48.25;;;13.20;73.10;;;;;;4982009;28;89487;-76
2023/03/27 07:12:39;;;;;;;66.88;47.85;;;13.30;73.10;;;;;;4977367;28;89797;-75
2023/03/27 07:15:05;;;;;;;68.18;48.33;;;13.20;73.00;;;;;;4977043;28;88885;-74
2023/03/27 07:17:32;;;;;;;65.47;48.22;;;13.20;72.90;;;;;;4983415;28;89060;-75
2023/03/27 07:19:58;;;;;;;69.35;48.13;;;13.30;72.80;;;;;;4980002;28;90530;-74
2023/03/27 07:22:25;;;;;;;67.78;47.88;;;13.20;72.80;;;;;;4975204;28;91349;-75
2023/03/27 07:24:50;;;;;;;65.03;47.83;;;13.20;73.70;;;;;;4976876;28;89769;-75
2023/03/27 07:27:16;;;;;;;65.35;47.88;;;13.20;73.10;;;;;;4982012;28;89039;-75
2023/03/27 07:29:41;;;;;;;68.18;48.10;;;13.30;72.70;;;;;;4977279;28;89516;-74
2023/03/27 07:32:07;;;;;;;67.47;47.83;;;13.30;72.60;;;;;;4970926;28;91092;-78
2023/03/27 07:34:33;;;;;;;65.68;48.08;;;13.30;72.70;;;;;;4974731;28;92149;-78
2023/03/27 07:36:59;;;;;;;73.00;48.22;;;13.30;72.30;;;;;;4979057;28;89738;-81
2023/03/27 07:39:25;;;;;;;70.55;48.47;;;13.40;72.20;;;;;;4979101;28;89037;-79
2023/03/27 07:41:51;;;;;;;68.60;48.20;;;13.40;72.00;;;;;;4979734;28;89974;-77
2023/03/27 07:44:18;;;;;;;66.50;48.38;;;13.40;72.10;;;;;;5006525;28;91077;-80
2023/03/27 07:46:45;;;;;;;70.18;48.67;;;13.40;72.20;;;;;;4979484;28;90089;-77
2023/03/27 07:49:12;;;;;;;66.22;48.40;;;13.50;72.10;;;;;;4981276;28;88876;-80
2023/03/27 07:51:38;;;;;;;68.13;48.42;;;13.40;71.80;;;;;;4977211;28;89700;-79
2023/03/27 07:54:04;;;;;;;67.07;48.35;;;13.40;71.80;;;;;;4976165;28;91034;-79
2023/03/27 07:56:32;;;;;;;69.30;48.67;;;13.40;72.00;;;;;;4986442;28;88577;-80
2023/03/27 07:58:58;;;;;;;66.97;48.38;;;13.40;71.50;;;;;;4984211;28;88546;-76
2023/03/27 08:01:27;;;;;;;68.47;48.63;;;13.50;71.40;;;;;;4980877;28;89893;-80
2023/03/27 08:03:53;;;;;;;68.03;48.55;;;13.50;71.20;;;;;;4976609;28;88570;-78
2023/03/27 08:06:19;;;;;;;66.65;48.50;;;13.50;71.00;;;;;;4977632;28;89445;-79
2023/03/27 08:08:45;;;;;;;67.75;48.28;;;13.40;71.10;;;;;;4979026;28;89089;-78
2023/03/27 08:11:10;;;;;;;68.38;48.13;;;13.50;71.60;;;;;;4992936;28;90220;-79
2023/03/27 08:13:36;;;;;;;69.05;48.85;;;13.50;71.30;;;;;;4979997;28;89773;-80
2023/03/27 08:16:17;;;;;;;66.70;48.30;;;13.50;70.80;;;;;;4980202;28;90880;-79
2023/03/27 08:18:45;;;;;;;66.20;47.90;;;13.40;70.30;;;;;;4982634;28;89328;-80
2023/03/27 08:21:12;;;;;;;68.65;48.28;;;13.40;71.00;;;;;;4978972;28;88667;-80
2023/03/27 08:23:39;;;;;;;67.65;48.50;;;13.50;71.30;;;;;;4980521;28;90676;-78
2023/03/27 08:26:05;;;;;;;67.68;48.58;;;13.50;70.80;;;;;;4982769;28;89236;-80
2023/03/27 08:28:33;;;;;;;67.53;48.53;;;13.50;70.50;;;;;;4980637;28;87753;-81
2023/03/27 08:31:00;;;;;;;65.85;48.28;;;13.50;70.40;;;;;;4979146;28;89579;-76
2023/03/27 08:33:26;;;;;;;66.30;48.45;;;13.50;70.00;;;;;;4987809;28;89102;-79
2023/03/27 08:35:53;;;;;;;66.38;47.97;;;13.40;70.10;;;;;;4978540;28;90659;-74
2023/03/27 08:38:19;;;;;;;68.03;48.17;;;13.40;70.20;;;;;;4980761;28;88996;-80
2023/03/27 08:40:47;;;;;;;66.60;48.10;;;13.40;71.10;;;;;;4981238;28;89109;-78
2023/03/27 08:43:19;;;;;;;65.80;48.35;;;13.50;70.90;;;;;;4979710;28;89418;-80
2023/03/27 08:45:53;;;;;;;65.57;48.00;;;13.50;70.00;;;;;;4982147;28;90087;-78
2023/03/27 08:48:28;;;;;;;65.25;47.95;;;13.40;69.90;;;;;;4979310;28;89090;-79
2023/03/27 08:51:03;;;;;;;66.03;48.30;;;13.40;70.20;;;;;;4972337;28;89723;-77
2023/03/27 08:53:40;;;;;;;66.43;48.05;;;13.50;70.00;;;;;;4986979;28;89109;-77
2023/03/27 08:56:14;;;;;;;66.72;48.33;;;13.50;70.30;;;;;;4982677;28;89346;-78
2023/03/27 08:58:41;;;;;;;68.22;48.28;;;13.50;69.60;;;;;;4982215;28;88930;-76
2023/03/27 09:01:16;;;;;;;67.53;48.17;;;13.40;69.80;;;;;;4982198;28;89912;-77
2023/03/27 09:04:01;;;;;;;67.00;48.05;;;13.50;70.00;;;;;;4982945;28;89623;-82
2023/03/27 09:06:57;;;;;;;72.90;48.47;;;13.60;69.30;;;;;;4985257;28;89092;-79
2023/03/27 09:09:25;;;;;;;71.38;48.70;;;13.60;70.20;;;;;;4984345;28;89869;-79
2023/03/27 09:12:11;;;;;;;72.20;48.33;;;13.60;70.10;;;;;;4984371;28;89549;-78
2023/03/27 09:14:43;;;;;;;67.03;48.05;;;13.70;69.60;;;;;;4988235;28;88980;-76
2023/03/27 09:17:40;;;;;;;67.93;48.05;;;13.70;70.30;;;;;;4991785;28;89330;-80
2023/03/27 09:20:18;;;;;;;67.65;48.63;;;13.70;70.50;;;;;;4970562;28;88514;-79
2023/03/27 09:22:49;;;;;;;69.60;48.45;;;13.80;69.90;;;;;;4983989;28;90948;-79
2023/03/27 09:25:23;;;;;;;;;;;13.70;69.30;;;;;;4991844;28;89719;-77
2023/03/27 09:27:51;;;;;;;66.90;48.20;;;13.70;70.40;;;;;;4989003;28;90873;-76
2023/03/27 09:30:31;;;;;;;68.88;48.47;;;13.60;68.80;;;;;;4988258;28;89053;-79
2023/03/27 09:33:02;;;;;;;65.40;48.08;;;13.50;70.00;;;;;;4983709;28;89270;-80
2023/03/27 09:35:28;;;;;;;68.28;48.30;;;13.40;70.60;;;;;;4989144;28;89433;-80
2023/03/27 09:38:32;;;;;;;64.40;47.95;;;13.40;70.50;;;;;;4985104;28;89884;-79
2023/03/27 09:41:02;;;;;;;66.43;48.08;;;13.30;70.60;;;;;;4988432;28;88984;-77
2023/03/27 09:43:45;;;;;;;67.63;48.40;;;13.20;71.20;;;;;;4988059;28;91047;-80
2023/03/27 09:46:18;;;;;;;66.45;48.25;;;13.30;72.10;;;;;;4988315;28;88835;-80
2023/03/27 09:48:49;;;;;;;67.13;48.22;;;13.30;72.20;;;;;;4989186;28;89098;-80
2023/03/27 09:51:34;;;;;;;65.55;48.28;;;13.30;72.10;;;;;;4987449;28;89497;-77
2023/03/27 09:53:59;;;;;;;67.60;48.25;;;13.40;72.10;;;;;;4988175;28;89999;-77
2023/03/27 09:56:27;;;;;;;68.68;48.20;;;13.40;72.00;;;;;;4987735;28;89243;-77
2023/03/27 09:58:52;;;;;;;66.15;48.30;;;13.40;71.70;;;;;;4988581;28;89120;-77
2023/03/27 10:01:29;;;;;;;66.80;48.42;;;13.40;71.70;;;;;;4986966;28;89709;-78
2023/03/27 10:03:57;;;;;;;75.43;48.22;;;13.40;72.10;;;;;;4988070;28;89496;-78
2023/03/27 10:06:25;;;;;;;67.43;48.38;;;13.50;71.70;;;;;;4988194;28;89588;-78
2023/03/27 10:08:52;;;;;;;67.63;47.95;;;13.60;71.60;;;;;;4982284;28;89290;-76
2023/03/27 10:11:31;;;;;;;66.80;48.42;;;13.70;71.60;;;;;;4986224;28;88349;-79
2023/03/27 10:14:00;;;;;;;65.53;48.10;;;13.80;71.50;;;;;;4986991;28;88898;-80
2023/03/27 10:16:28;;;;;;;67.97;48.50;;;13.80;71.30;;;;;;4982904;28;89678;-80
2023/03/27 10:18:57;;;;;;;68.47;48.45;;;13.80;71.60;;;;;;4986896;28;91610;-80
2023/03/27 10:21:31;;;;;;;66.63;47.97;;;13.90;71.40;;;;;;4985122;28;90421;-77
2023/03/27 10:24:05;;;;;;;66.30;48.28;;;14.00;71.00;;;;;;4984817;28;91500;-79
2023/03/27 10:26:32;;;;;;;67.43;48.58;;;14.00;70.70;;;;;;4985849;28;89700;-77
2023/03/27 10:29:05;;;;;;;66.60;48.60;;;13.90;71.30;;;;;;4986799;28;89204;-79
2023/03/27 10:31:36;;;;;;;66.80;48.15;;;14.00;70.90;;;;;;4978882;28;91002;-79
2023/03/27 10:34:25;;;;;;;69.00;48.50;;;14.00;71.00;;;;;;4977824;28;90504;-80
2023/03/27 10:36:54;;;;;;;67.47;48.75;;;14.10;71.30;;;;;;4982638;28;91571;-80
2023/03/27 10:39:25;;;;;;;68.65;48.80;;;14.00;70.80;;;;;;4983188;28;89574;-78
2023/03/27 10:41:51;;;;;;;68.05;48.80;;;14.10;71.00;;;;;;4988566;28;89815;-78
2023/03/27 10:44:24;;;;;;;67.78;48.80;;;14.20;70.80;;;;;;4981744;28;90497;-80
2023/03/27 10:46:52;;;;;;;67.15;48.28;;;14.20;70.50;;;;;;4980246;28;91687;-80
2023/03/27 10:49:55;;;;;;;67.78;48.90;;;14.20;70.30;;;;;;4984156;28;88793;-80
2023/03/27 10:52:30;;;;;;;67.15;48.42;;;14.20;70.90;;;;;;4980781;28;90710;-77
2023/03/27 10:55:35;;;;;;;68.25;48.53;;;14.20;70.90;;;;;;4981454;28;89553;-80
2023/03/27 10:58:20;;;;;;;67.20;48.28;;;14.20;70.60;;;;;;4983470;28;90331;-78
2023/03/27 11:00:54;;;;;;;69.18;48.67;;;14.20;70.70;;;;;;4982929;28;91471;-79
2023/03/27 11:03:30;;;;;;;68.30;48.75;;;14.20;70.20;;;;;;4985450;28;89339;-76
2023/03/27 11:05:59;;;;;;;68.38;48.92;;;14.20;70.30;;;;;;4981685;28;90404;-79
2023/03/27 11:08:37;;;;;;;69.20;48.80;;;14.30;69.90;;;;;;4983281;28;90258;-79
2023/03/27 11:11:12;;;;;;;69.28;48.78;;;14.30;68.20;;;;;;4998610;28;89939;-79
2023/03/27 11:13:42;;;;;;;67.75;48.55;;;14.30;69.80;;;;;;4984070;28;90361;-77
2023/03/27 11:16:49;;;;;;;69.43;48.85;;;14.40;70.40;;;;;;4977427;28;89664;-80
2023/03/27 11:19:36;;;;;;;67.63;48.53;;;14.60;69.00;;;;;;4901283;28;89340;-77
2023/03/27 11:22:10;;;;;;;69.57;49.13;;;14.70;69.70;;;;;;4898604;28;89663;-79
2023/03/27 11:24:46;;;;;;;69.72;48.85;;;14.70;68.90;;;;;;4954363;28;90123;-80
2023/03/27 11:27:19;;;;;;;69.57;49.17;;;14.80;67.70;;;;;;4983978;28;89415;-79
2023/03/27 11:29:56;;;;;;;68.72;48.85;;;14.70;67.70;;;;;;4981938;28;90369;-78
2023/03/27 11:32:38;;;;;;;69.60;48.60;;;14.60;67.20;;;;;;4978108;28;89814;-80
2023/03/27 11:35:12;;;;;;;69.22;48.67;;;14.50;66.90;;;;;;4980461;28;89479;-79
2023/03/27 11:37:41;;;;;;;68.85;49.03;;;14.40;67.80;;;;;;4981891;28;90348;-79
2023/03/27 11:40:25;;;;;;;72.57;49.05;;;14.50;69.30;;;;;;4995535;28;89805;-79
2023/03/27 11:42:51;;;;;;;68.35;48.50;;;14.60;69.40;;;;;;4975900;28;89168;-76
2023/03/27 11:45:23;;;;;;;69.32;48.90;;;14.70;68.60;;;;;;4980338;28;88742;-77
2023/03/27 11:48:23;;;;;;;72.13;49.35;;;14.70;68.00;;;;;;4985842;28;91661;-79
2023/03/27 11:51:00;;;;;;;68.82;48.83;;;14.70;68.70;;;;;;4986643;28;89864;-80
2023/03/27 11:53:31;;;;;;;69.45;49.10;;;14.70;68.40;;;;;;4978473;28;89156;-80
2023/03/27 11:56:16;;;;;;;;;;;14.80;68.60;;;;;;4978756;28;87748;-80
2023/03/27 11:58:49;;;;;;;68.28;48.72;;;14.80;67.90;;;;;;4987627;28;89010;-80
2023/03/27 12:01:33;;;;;;;67.63;48.60;;;14.80;68.80;;;;;;4978064;28;91096;-78
2023/03/27 12:04:15;;;;;;;69.97;49.38;;;14.80;67.90;;;;;;4983524;28;89944;-80
2023/03/27 12:06:48;;;;;;;70.22;49.25;;;14.90;68.00;;;;;;4980270;28;90217;-79
2023/03/27 12:09:54;;;;;;;71.68;49.17;;;14.90;67.10;;;;;;4984212;28;89035;-79
2023/03/27 12:12:37;;;;;;;69.05;48.80;;;14.70;66.20;;;;;;4907460;28;89444;-80
2023/03/27 12:15:38;;;;;;;70.75;49.05;;;14.80;67.50;;;;;;4907866;28;89051;-80
2023/03/27 12:18:31;;;;;;;69.25;48.83;;;14.80;68.40;;;;;;4962633;28;89894;-80
2023/03/27 12:21:22;;;;;;;69.32;48.97;;;14.90;68.00;;;;;;4985899;28;89637;-79
2023/03/27 12:24:18;;;;;;;70.28;48.90;;;14.90;67.40;;;;;;4982241;28;89173;-78
2023/03/27 12:27:33;;;;;;;69.03;48.97;;;14.90;67.50;;;;;;4984495;28;89415;-79
2023/03/27 12:30:13;;;;;;;69.05;49.17;;;15.00;67.70;;;;;;4964268;28;88873;-80
2023/03/27 12:32:50;;;;;;;68.80;48.95;;;15.10;67.50;;;;;;4971011;28;90664;-79
2023/03/27 12:35:25;;;;;;;68.72;48.78;;;15.10;67.30;;;;;;4977122;28;89735;-78
2023/03/27 12:38:00;;;;;;;69.43;49.17;;;15.10;67.30;;;;;;4974459;28;89925;-80
2023/03/27 12:40:28;;;;;;;70.60;49.10;;;15.10;67.00;;;;;;4983178;28;90203;-78
2023/03/27 12:43:09;;;;;;;70.57;49.35;;;15.10;67.30;;;;;;4982451;28;90066;-80
2023/03/27 12:45:36;;;;;;;69.97;49.30;;;15.20;66.50;;;;;;4982798;28;88960;-76
2023/03/27 12:48:08;;;;;;;72.20;49.60;;;15.20;65.80;;;;;;4984048;28;89712;-79
2023/03/27 12:50:53;;;;;;;70.55;49.15;;;15.10;66.20;;;;;;4982965;28;90036;-79
2023/03/27 12:53:28;;;;;;;69.95;49.38;;;15.10;67.00;;;;;;4980467;28;89829;-78
2023/03/27 12:56:11;;;;;;;69.47;49.05;;;15.10;66.90;;;;;;4966171;28;90764;-76